UNR Ag. Experiment Farm, Sparks, Nevada Weather observations

Data are for 10 minute period ending at time listed.
 Day   Time   Solar   Ave.   Ave.  Ave.  Vector  Max.   Baro.   Total    
  of    of     Rad.   Air    Rel.  Wind   Wind   Wind  Press.  Precip.   
Year   Day            Temp.  Hum.  Speed  Dir.   Gust                    
2014   (PST)  Kw/m2    F      %     mph   deg.    mph    mb.     in.     
-------------------------------------------------------------------------
 295    1:20   0.00   34.8    83    0.2   100     0.8   867.5    0.00 
 295    1:30   0.00   33.9    85    0.0     0     0.0   867.5    0.00 
 295    1:40   0.00   32.7    84    1.3    71     3.4   867.5    0.00 
 295    1:50   0.00   33.1    88    0.5    63     1.0   867.5    0.00 
 295    2:00   0.00   33.4    87    0.1    85     0.7   867.5    0.00 
 295    2:10   0.00   33.6    88    1.8   136     2.7   867.4    0.00 
 295    2:20   0.00   33.8    88    0.2   139     0.7   867.6    0.00 
 295    2:30   0.00   34.2    88    0.8   135     2.0   867.7    0.00 
 295    2:40   0.00   33.3    86    1.7   132     3.6   867.7    0.00 
 295    2:50   0.00   33.1    86    1.7   135     2.9   867.6    0.00 
 295    3:00   0.00   32.7    85    0.5   170     2.4   867.6    0.00 
 295    3:10   0.00   32.1    86    0.6   190     1.6   867.6    0.00 
 295    3:20   0.00   33.2    86    0.9   190     1.2   867.7    0.00 
 295    3:30   0.00   34.6    85    0.5   190     1.2   867.7    0.00 
 295    3:40   0.00   34.2    84    0.0   190     0.6   867.7    0.00 
 295    3:50   0.00   33.8    84    0.6   189     1.2   867.6    0.00 
 295    4:00   0.00   32.9    85    0.9   177     1.5   867.6    0.00 
 295    4:10   0.00   33.2    86    0.0   176     0.4   867.7    0.00 
 295    4:20   0.00   32.5    86    0.1   190     1.1   867.9    0.00 
 295    4:30   0.00   31.9    87    2.2   140     3.0   867.9    0.00 
 295    4:40   0.00   32.0    89    1.2   129     1.8   867.9    0.00 
 295    4:50   0.00   32.8    89    0.3   129     0.9   868.0    0.00 
 295    5:00   0.00   31.8    88    0.3   358     1.5   868.0    0.00 
 295    5:10   0.00   30.8    90    1.6   285     3.5   868.0    0.00 
 295    5:20   0.00   31.5    91    0.6   262     1.2   868.1    0.00 
 295    5:30   0.00   31.8    91    2.0   120     3.1   868.0    0.00 
 295    5:40   0.00   31.7    90    0.2   119     1.1   868.0    0.00 
 295    5:50   0.00   32.4    91    0.5   108     1.1   868.0    0.00 
 295    6:00   0.00   30.6    90    0.1   108     0.8   868.0    0.00 
 295    6:10   0.00   29.9    91    0.2   125     1.4   868.2    0.00 
 295    6:20   0.00   31.2    92    1.3   125     2.0   868.2    0.00 
 295    6:30   0.00   31.3    91    0.1   125     0.7   868.3    0.00 
 295    6:40   0.01   31.2    91    0.4   125     1.0   868.2    0.00 
 295    6:50   0.02   30.7    91    0.9   125     1.5   868.3    0.00 
 295    7:00   0.05   31.6    91    0.1   113     0.7   868.3    0.00 
 295    7:10   0.06   32.4    90    0.3   109     1.2   868.4    0.00 
 295    7:20   0.07   33.1    90    0.0     0     0.0   868.5    0.00 
 295    7:30   0.08   35.1    89    0.7   106     1.4   868.6    0.00 
 295    7:40   0.11   36.5    86    2.3   127     3.2   868.7    0.00 
 295    7:50   0.12   39.1    79    2.2   121     2.9   868.7    0.00 
 295    8:00   0.14   40.4    75    0.7   121     2.1   868.6    0.00 
 295    8:10   0.23   42.7    69    0.1   157     0.9   868.6    0.00 
 295    8:20   0.30   43.5    66    0.9   346     1.8   868.6    0.00 
 295    8:30   0.32   45.8    61    0.8   346     2.0   868.6    0.00 
 295    8:40   0.30   46.5    59    0.8    40     2.7   868.4    0.00 
 295    8:50   0.31   47.1    56    0.9     0     2.3   868.2    0.00 
 295    9:00   0.28   46.8    53    1.4   302     2.6   868.3    0.00 
 295    9:10   0.44   48.1    51    0.5   353     2.5   868.3    0.00 
 295    9:20   0.51   50.1    49    0.8    53     3.1   868.1    0.00 
 295    9:30   0.54   50.5    51    1.0    48     3.0   868.0    0.00 
 295    9:40   0.31   51.1    50    0.4   355     2.3   868.0    0.00 
 295    9:50   0.37   51.5    50    0.9    10     2.8   868.0    0.00 
 295   10:00   0.52   53.4    46    1.5   323     3.8   867.8    0.00 
 295   10:10   0.37   53.6    44    1.5   324     3.1   867.7    0.00 
 295   10:20   0.29   53.2    47    0.8   319     3.2   867.7    0.00 
 295   10:30   0.35   54.7    41    0.7    45     2.1   867.5    0.00 
 295   10:40   0.35   55.0    45    0.7    41     2.3   867.5    0.00 
 295   10:50   0.36   55.5    44    1.5    13     3.1   867.6    0.00 
 295   11:00   0.40   55.6    45    0.4    44     2.1   867.6    0.00 
 295   11:10   0.39   56.2    42    0.2    55     1.5   867.5    0.00 
 295   11:20   0.44   57.3    40    0.6    59     2.1   867.3    0.00 
 295   11:30   0.67   58.8    35    0.5    47     2.3   867.3    0.00 
 295   11:40   0.48   60.1    33    0.8    48     2.9   867.2    0.00 
 295   11:50   0.39   59.5    36    1.0    30     3.2   867.1    0.00 
 295   12:00   0.34   60.2    34    0.7    56     2.7   867.1    0.00 
 295   12:10   0.30   60.5    34    0.5    64     1.8   867.0    0.00 
 295   12:20   0.32   60.8    31    0.2    44     2.4   866.9    0.00 
 295   12:30   0.31   61.2    32    0.4    47     1.7   866.7    0.00 
 295   12:40   0.24   60.9    31    0.3    30     1.8   866.6    0.00 
 295   12:50   0.30   61.4    32    0.5   342     1.9   866.5    0.00 
 295   13:00   0.39   62.4    30    0.7   356     1.5   866.5    0.00 
 295   13:10   0.45   64.1    27    0.6   277     2.3   866.3    0.00 
 295   13:20   0.37   64.3    27    1.1   287     3.1   866.3    0.00 
 295   13:30   0.48   63.8    30    2.0   336     3.5   866.2    0.00 
 295   13:40   0.48   65.0    29    1.5     6     3.9   866.1    0.00 
 295   13:50   0.59   65.4    27    1.6   328     3.0   866.0    0.00 
 295   14:00   0.56   65.8    27    2.3   337     3.9   866.0    0.00 
 295   14:10   0.44   65.7    27    2.4   334     4.4   866.0    0.00 
 295   14:20   0.40   67.0    24    0.5   308     2.0   866.0    0.00 
 295   14:30   0.36   67.7    25    0.7   318     2.3   866.0    0.00 
 295   14:40   0.29   68.6    24    0.9   323     2.1   866.0    0.00 
 295   14:50   0.37   67.5    27    1.6   313     3.1   866.1    0.00 
 295   15:00   0.38   67.7    26    2.0   338     3.5   865.9    0.00 
 295   15:10   0.32   68.4    26    1.5   355     3.2   865.9    0.00 
 295   15:20   0.22   68.8    26    0.8    34     1.8   865.8    0.00 
 295   15:30   0.17   69.2    25    0.5    66     1.6   865.7    0.00 
 295   15:40   0.21   68.1    28    1.0   310     1.5   865.6    0.00 
 295   15:50   0.29   68.8    29    0.2   324     0.8   865.6    0.00 
 295   16:00   0.25   70.4    26    0.9    27     1.5   865.6    0.00 
 295   16:10   0.18   71.6    27    1.3    54     2.2   865.6    0.00 
 295   16:20   0.17   69.7    33    1.4    42     1.8   865.5    0.00 
 295   16:30   0.16   69.7    32    1.9    52     2.5   865.4    0.00 
 295   16:40   0.11   70.0    26    2.0    74     2.6   865.3    0.00 
 295   16:50   0.10   67.9    24    2.0    86     2.7   865.2    0.00 
 295   17:00   0.04   66.8    25    1.9    71     2.4   865.0    0.00 
 295   17:10   0.02   66.1    25    1.3    79     2.4   865.0    0.00 
 295   17:20   0.00   64.5    28    2.0   158     5.7   864.9    0.00 
 295   17:30   0.00   62.8    30    4.8   163     5.9   864.7    0.00 
 295   17:40   0.00   62.6    30    4.8   171     6.1   864.9    0.00 
 295   17:50   0.00   62.7    30    4.6   204     6.1   865.1    0.00 
 295   18:00   0.00   63.6    28    3.6   198     5.3   865.1    0.00 
 295   18:10   0.00   63.7    27    3.6   197     5.1   865.2    0.00 
 295   18:20   0.00   62.5    31    4.9   228     8.3   865.3    0.00 
 295   18:30   0.00   60.3    33    3.2   219     5.1   865.2    0.00 
 295   18:40   0.00   62.1    30    2.4   228     3.8   865.1    0.00 
 295   18:50   0.00   61.5    30    3.0   250     4.8   865.1    0.00 
 295   19:00   0.00   60.3    32    3.4   266     5.4   865.2    0.00 
 295   19:10   0.00   59.4    32    3.8   216     7.2   865.5    0.00 
 295   19:20   0.00   60.3    32    5.2   228     6.9   865.8    0.00 
 295   19:30   0.00   57.8    36    7.0   231     9.8   865.8    0.00 
 295   19:40   0.00   58.7    35    8.9   240    11.2   865.9    0.00 
 295   19:50   0.00   58.2    35    9.4   251    11.5   865.9    0.00 
 295   20:00   0.00   58.8    33    8.9   260    12.9   866.0    0.00 
 295   20:10   0.00   59.2    32    8.9   265    14.1   866.0    0.00 
 295   20:20   0.00   58.2    33    6.6   262     8.8   866.0    0.00 
 295   20:30   0.00   58.0    34    6.2   259     9.1   866.2    0.00 
 295   20:40   0.00   57.7    34    7.4   266     9.2   866.3    0.00 
 295   20:50   0.00   57.3    34    7.3   277    10.4   866.4    0.00 
 295   21:00   0.00   56.3    36    6.7   275     8.6   866.4    0.00 
 295   21:10   0.00   55.9    37    6.3   287     7.6   866.2    0.00 
 295   21:20   0.00   55.5    37    6.4   275     9.1   866.3    0.00 
 295   21:30   0.00   55.8    36    5.5   285     7.8   866.5    0.00 
 295   21:40   0.00   55.5    35    3.7   256     7.2   866.4    0.00 
 295   21:50   0.00   53.4    39    2.4   130     4.5   866.3    0.00 
 295   22:00   0.00   53.7    38    0.7    62     2.5   866.3    0.00 
 295   22:10   0.00   53.3    38    6.7   292    13.2   866.5    0.00 
 295   22:20   0.00   54.2    37    8.2   281    10.0   866.8    0.00 
 295   22:30   0.00   53.6    37    5.3   292     8.3   866.8    0.00 
 295   22:40   0.00   51.6    40    2.9    43     5.3   866.8    0.00 
 295   22:50   0.00   52.9    37    1.6   136     4.2   866.7    0.00 
 295   23:00   0.00   52.3    38    1.8    16     4.1   866.7    0.00 
 295   23:10   0.00   49.7    45    1.9    83     5.3   866.6    0.00 
 295   23:20   0.00   48.8    45    1.4   304     4.7   866.8    0.00 
 295   23:30   0.00   50.8    41    1.1     7     2.4   866.8    0.00 
 295   23:40   0.00   49.9    44    1.9    85     4.7   866.9    0.00 
 295   23:50   0.00   45.8    53    1.2   357     3.1   866.9    0.00 
 296    0:00   0.00   47.6    47    2.5    32     4.9   866.6    0.00 
 296    0:10   0.00   45.7    54    1.5    92     4.2   866.7    0.00 
 296    0:20   0.00   44.2    56    1.3    10     3.7   866.8    0.00 
 296    0:30   0.00   42.7    61    2.8   339     3.8   866.9    0.00 
 296    0:40   0.00   42.2    62    2.8   167     4.4   866.8    0.00 
 296    0:50   0.00   40.5    66    2.1   183     4.4   866.7    0.00 
 296    1:00   0.00   42.7    62    1.5   273     4.3   866.8    0.00 
 296    1:10   0.00   41.6    64    2.3   116     4.6   866.7    0.00 

Return to Sparks, Nevada, UNR Ag Experiment Farm graphs page.


Western Regional Climate Center,wrcc@dri.edu